Bagley, MN

5:57 PM CDT on August 24, 2016 (GMT -0500)
Shevlin | | Change Station

Elev 1486 ft 47.53 °N, 95.29 °W | Updated 35 seconds ago

Overcast
Overcast
70.0 °F
Feels Like 70.0 °F
N
3.6
Wind Variable Wind from WNW
Gusts 4.9 mph

Today
High -- | Low -- °F
--% Chance of Precip.
Yesterday
High -- | Low -- °F
Precip. -- in
Pressure 29.93 in
Visibility 10.0 miles
Clouds Overcast 6000 ft
Dew Point 53 °F
Humidity 55%
Rainfall 0.00 in
Snow Depth Not available.
6:30 AM 8:16 PM
Waning Gibbous, 52% visible
METAR KFSE 242235Z AUTO 26011KT 10SM OVC060 21/11 A2993 RMK AO2
Pressure 29.93 in
Visibility 10.0 miles
Clouds Overcast 6000 ft
Dew Point 53 °F
Humidity 55%
Rainfall 0.00 in
Snow Depth Not available.
6:30 AM 8:16 PM
Waning Gibbous, 52% visible
METAR KFSE 242235Z AUTO 26011KT 10SM OVC060 21/11 A2993 RMK AO2

10-Day Weather Forecast

Almanac

Astronomy

Aug. 24, 2016 Rise Set
Actual Time
Civil Twilight
Nautical Twilight
Astronomical Twilight
Moon
Length of Visible Light
Length of Day
Tomorrow will be .
, % of the Moon is Illuminated

Today's Extremes

State Highs State Lows

Community

WunderPhotos

Upload Photos

1,934,728 photos uploaded!

WunderBlog® & News

Nearby

Air Quality

  Air Quality AQ Index Pollutant
Not available.

Snow Depth

Station Depth Elevation

Earthquake Activity

City Distance Mag. Time & Date
Minimum magnitude displayed is 2.5.

Coastal Water Temperatures

Place Temperature

Stations

Nearby Weather Stations

Station Location Temp. Windchill Dew Point Humidity Wind Precip. Elev Updated Type
                   

Watches & Warnings

There are currently no watches in effect.